Uruapan Gen Rayon, Mexico

2:59 PM CDT on September 02, 2015 (GMT -0500)
Gen Ignacio Lopez Rayon | | Change Station
CLOSE
Current Station
Airport
Location: Uruapan Gen Rayon,
Elevation: 5226 ft
Nearby Weather Stations

Elev 5226 ft 19.40 °N, 102.04 °W | Updated 12 minutes ago

Light Thunderstorms and Rain
Thunderstorm Light Rain
70 °F
Feels Like 70 °F
N
12
Wind Variable Wind from South

Today
High -- | Low -- °F
--% Chance of Precip.
Yesterday
High -- | Low -- °F
Precip. -- in
7:33 AM 8:02 PM
Waning Gibbous, 77% visible
Pressure 30.20 in
Visibility 5.0 miles
Clouds Mostly Cloudy 2000 ft
Mostly Cloudy 7000 ft
Overcast 25000 ft
Dew Point 66 °F
Humidity 88%
Rainfall 0.00 in
Snow Depth Not available.
UV 4 out of 12
Pollen Not available.
Air Quality Not available.
Flu Activity Not available.
METAR MMPN 021947Z 18010KT 5SM TS -RA BKN020CB BKN070 OVC250 21/19 A3020 RMK 6//// 8/968 TS -RA B40 LTGS NE
Pressure 30.20 in
Visibility 5.0 miles
Clouds Mostly Cloudy 2000 ft
Mostly Cloudy 7000 ft
Overcast 25000 ft
Dew Point 66 °F
Humidity 88%
Rainfall 0.00 in
Snow Depth Not available.
UV 4 out of 12
Pollen Not available.
Air Quality Not available.
Flu Activity Not available.
METAR MMPN 021947Z 18010KT 5SM TS -RA BKN020CB BKN070 OVC250 21/19 A3020 RMK 6//// 8/968 TS -RA B40 LTGS NE

10-Day Weather Forecast

×

Almanac

Astronomy

Sep. 02, 2015 Rise Set
Actual Time
Civil Twilight
Nautical Twilight
Astronomical Twilight
Moon
Length of Visible Light
Length of Day
Tomorrow will be .
, % of the Moon is Illuminated

Today's Extremes

Country Highs Country Lows

Community

WunderPhotos

Upload Photos

1,851,801 photos uploaded!

WunderBlogs® & News

Nearby

Air Quality

  Air Quality AQ Index Pollutant
Not available.

Snow Depth

Station Depth Elevation

Earthquake Activity

City Distance Mag. Time & Date
Minimum magnitude displayed is 2.5.

Coastal Water Temperatures

Place Temperature

Stations

Nearby Weather Stations

Station Location Temp. Windchill Dew Point Humidity Wind Precip. Elev Updated Type